createdAt,value
2022-09-27T00:03:30.045Z,1.70
2022-09-27T00:07:07.124Z,2.50
2022-09-27T00:10:44.028Z,2.80
2022-09-27T00:14:21.521Z,1.30
2022-09-27T00:17:58.267Z,2.20
2022-09-27T00:21:37.258Z,1.90
2022-09-27T00:25:16.394Z,4.50
2022-09-27T00:28:53.810Z,4.50
2022-09-27T00:32:31.881Z,4.40
2022-09-27T00:36:10.377Z,5.10
2022-09-27T00:39:48.231Z,4.20
2022-09-27T00:43:26.203Z,4.40
2022-09-27T00:47:20.149Z,4.40
2022-09-27T00:51:04.345Z,4.20
2022-09-27T00:54:47.783Z,4.70
2022-09-27T00:58:30.367Z,3.60
2022-09-27T01:02:08.237Z,4.30
2022-09-27T01:05:48.608Z,4.10
2022-09-27T01:09:26.472Z,3.30
2022-09-27T01:13:23.849Z,3.90
2022-09-27T01:17:43.607Z,4.30
2022-09-27T01:21:43.169Z,5.60
2022-09-27T01:25:26.152Z,3.70
2022-09-27T01:29:21.679Z,4.70
2022-09-27T01:33:01.946Z,3.70
2022-09-27T01:37:01.919Z,4.30
2022-09-27T01:40:49.464Z,7.80
2022-09-27T01:44:51.622Z,6.30
2022-09-27T01:48:37.242Z,5.70
2022-09-27T01:52:21.310Z,5.70
2022-09-27T01:56:03.985Z,5.40
2022-09-27T01:59:59.319Z,4.70
2022-09-27T02:03:40.860Z,5.50
2022-09-27T02:07:40.641Z,4.20
2022-09-27T02:11:17.637Z,4.30
2022-09-27T02:15:03.039Z,5.10
2022-09-27T02:18:52.247Z,5.50
2022-09-27T02:22:35.131Z,6.40
2022-09-27T02:26:22.927Z,5.20
2022-09-27T02:30:12.940Z,5.00
2022-09-27T02:33:58.215Z,4.10
2022-09-27T02:37:36.071Z,3.70
2022-09-27T02:41:15.478Z,3.90
2022-09-27T02:44:53.031Z,4.30
2022-09-27T02:48:37.141Z,3.50
2022-09-27T02:52:32.712Z,5.40
2022-09-27T02:56:57.578Z,2.90
2022-09-27T03:00:47.800Z,2.50
2022-09-27T03:04:46.445Z,2.40
2022-09-27T03:08:24.412Z,2.10
2022-09-27T03:12:01.617Z,3.40
2022-09-27T03:15:38.717Z,4.00
2022-09-27T03:19:15.968Z,2.40
2022-09-27T03:22:53.581Z,4.00
2022-09-27T03:26:30.886Z,2.30
2022-09-27T03:30:11.417Z,2.40
2022-09-27T03:33:50.400Z,2.20
2022-09-27T03:37:27.961Z,5.30
2022-09-27T03:41:05.419Z,2.20
2022-09-27T03:44:43.596Z,3.70
2022-09-27T03:48:39.678Z,1.90
2022-09-27T03:51:57.690Z,2.10
2022-09-27T03:55:35.560Z,1.80
2022-09-27T03:59:12.716Z,1.90
2022-09-27T04:02:50.826Z,2.10
2022-09-27T04:06:28.416Z,2.50
2022-09-27T04:10:06.502Z,3.80
2022-09-27T04:13:45.925Z,2.70
2022-09-27T04:17:24.711Z,1.90
2022-09-27T04:21:02.377Z,3.70
2022-09-27T04:24:40.036Z,2.10
2022-09-27T04:28:17.591Z,2.50
2022-09-27T04:31:55.461Z,2.00
2022-09-27T04:35:32.716Z,1.90
2022-09-27T04:39:11.237Z,1.60
2022-09-27T04:42:49.703Z,1.60
2022-09-27T04:46:30.351Z,4.60
2022-09-27T04:50:08.798Z,1.90
2022-09-27T04:53:47.703Z,1.80
2022-09-27T04:57:26.260Z,1.70
2022-09-27T05:01:04.368Z,1.50
2022-09-27T05:04:41.379Z,3.30
2022-09-27T05:08:19.264Z,4.10
2022-09-27T05:11:58.033Z,2.40
2022-09-27T05:15:35.093Z,1.80
2022-09-27T05:19:13.257Z,2.70
2022-09-27T05:22:50.258Z,3.90
2022-09-27T05:26:27.154Z,2.40
2022-09-27T05:30:05.735Z,1.90
2022-09-27T05:33:44.729Z,2.80
2022-09-27T05:37:22.464Z,3.40
2022-09-27T05:40:59.817Z,3.40
2022-09-27T05:44:37.128Z,4.90
2022-09-27T05:48:17.421Z,2.00
2022-09-27T05:51:55.190Z,4.30
2022-09-27T05:55:32.851Z,4.10
2022-09-27T05:59:10.721Z,2.50
2022-09-27T06:02:54.267Z,3.70
2022-09-27T06:06:32.659Z,1.70
2022-09-27T06:10:10.253Z,3.10
2022-09-27T06:13:48.937Z,2.00
2022-09-27T06:17:27.224Z,5.30
2022-09-27T06:21:05.897Z,4.30
2022-09-27T06:24:45.501Z,3.30
2022-09-27T06:28:22.762Z,5.10
2022-09-27T06:32:00.100Z,3.10
2022-09-27T06:35:38.046Z,1.80
2022-09-27T06:39:35.643Z,2.70
2022-09-27T06:42:52.079Z,2.30
2022-09-27T06:46:30.091Z,5.10
2022-09-27T06:50:08.121Z,4.00
2022-09-27T06:53:45.176Z,4.00
2022-09-27T06:57:22.436Z,4.70
2022-09-27T07:00:59.487Z,2.80
2022-09-27T07:04:36.520Z,3.60
2022-09-27T07:08:36.210Z,4.00
2022-09-27T07:11:50.282Z,4.30
2022-09-27T07:15:28.693Z,7.70
2022-09-27T07:19:05.936Z,4.70
2022-09-27T07:22:43.421Z,5.00
2022-09-27T07:26:20.241Z,5.10
2022-09-27T07:29:57.906Z,3.90
2022-09-27T07:33:37.174Z,7.10
2022-09-27T07:37:18.141Z,3.10
2022-09-27T07:40:55.775Z,2.80
2022-09-27T07:44:33.566Z,3.70
2022-09-27T07:48:16.939Z,3.10
2022-09-27T07:51:55.031Z,3.80
2022-09-27T07:55:34.855Z,6.30
2022-09-27T07:59:12.782Z,4.70
2022-09-27T08:02:50.171Z,4.30
2022-09-27T08:06:27.632Z,6.10
2022-09-27T08:10:05.891Z,6.70
2022-09-27T08:13:43.466Z,8.50
2022-09-27T08:17:20.623Z,7.10
2022-09-27T08:20:58.890Z,6.50
2022-09-27T08:24:36.660Z,3.70
2022-09-27T08:28:14.015Z,3.40
2022-09-27T08:31:52.150Z,2.20
2022-09-27T08:35:33.060Z,6.80
2022-09-27T08:39:11.777Z,1.90
2022-09-27T08:42:56.695Z,1.80
2022-09-27T08:46:53.491Z,2.30
2022-09-27T08:50:40.063Z,2.50
2022-09-27T08:54:24.988Z,2.10
2022-09-27T08:58:04.211Z,2.30
2022-09-27T09:01:43.661Z,4.50
2022-09-27T09:05:29.515Z,6.20
2022-09-27T09:09:24.038Z,3.20
2022-09-27T09:13:13.046Z,2.30
2022-09-27T09:17:09.595Z,2.20
2022-09-27T09:20:46.502Z,1.50
2022-09-27T09:24:39.337Z,1.80
2022-09-27T09:28:35.374Z,5.00
2022-09-27T09:32:33.210Z,2.40
2022-09-27T09:36:37.671Z,4.50
2022-09-27T09:40:18.134Z,3.30
2022-09-27T09:44:19.097Z,3.90
2022-09-27T09:48:08.862Z,2.00
2022-09-27T09:52:08.012Z,1.70
2022-09-27T09:55:55.827Z,2.30
2022-09-27T10:00:05.287Z,1.70
2022-09-27T10:03:42.625Z,3.80
2022-09-27T10:07:23.046Z,1.80
2022-09-27T10:11:01.022Z,1.30
2022-09-27T10:14:38.911Z,1.30
2022-09-27T10:18:20.007Z,4.20
2022-09-27T10:22:14.443Z,2.20
2022-09-27T10:25:58.656Z,2.70
2022-09-27T10:29:38.435Z,2.30
2022-09-27T10:33:18.424Z,4.20
2022-09-27T10:37:15.386Z,2.10
2022-09-27T10:40:55.520Z,2.60
2022-09-27T10:44:33.598Z,6.60
2022-09-27T10:48:20.610Z,1.10
2022-09-27T10:52:15.425Z,1.50
2022-09-27T10:55:54.755Z,1.40
2022-09-27T10:59:37.078Z,1.30
2022-09-27T11:03:17.061Z,3.60
2022-09-27T11:07:17.714Z,3.80
2022-09-27T11:11:24.435Z,1.40
2022-09-27T11:15:05.421Z,1.70
2022-09-27T11:19:01.618Z,1.90
2022-09-27T11:22:51.377Z,2.50
2022-09-27T11:26:35.937Z,1.10
2022-09-27T11:30:21.750Z,2.20
2022-09-27T11:34:32.100Z,1.10
2022-09-27T11:38:52.595Z,2.70
2022-09-27T11:42:44.102Z,3.00
2022-09-27T11:46:41.604Z,3.00
2022-09-27T11:50:32.074Z,1.10
2022-09-27T11:54:54.829Z,0.60
2022-09-27T11:58:41.740Z,1.00
2022-09-27T12:02:53.302Z,0.80
2022-09-27T12:06:56.313Z,0.30
2022-09-27T12:10:14.324Z,0.50
2022-09-27T12:13:55.977Z,2.70
2022-09-27T12:17:41.798Z,1.50
2022-09-27T12:21:20.502Z,3.40
2022-09-27T12:24:59.198Z,1.60
2022-09-27T12:28:39.470Z,0.50
2022-09-27T12:32:25.710Z,0.50
2022-09-27T12:36:09.472Z,2.40
2022-09-27T12:40:06.499Z,1.80
2022-09-27T12:43:49.568Z,2.10
2022-09-27T12:48:01.642Z,1.00
2022-09-27T12:51:49.691Z,0.20
2022-09-27T12:55:56.787Z,0.70
2022-09-27T12:59:52.130Z,1.30
2022-09-27T13:04:26.821Z,1.10
2022-09-27T13:08:20.803Z,1.00
2022-09-27T13:12:07.400Z,1.50
2022-09-27T13:15:46.737Z,3.20
2022-09-27T13:19:53.408Z,2.20
2022-09-27T13:23:34.473Z,1.90
2022-09-27T13:27:35.905Z,0.80
2022-09-27T13:31:16.205Z,2.20
2022-09-27T13:34:55.579Z,2.70
2022-09-27T13:38:35.387Z,0.90
2022-09-27T13:42:40.530Z,1.20
2022-09-27T13:46:24.386Z,0.40
2022-09-27T13:50:32.208Z,1.70
2022-09-27T13:54:50.725Z,2.00
2022-09-27T13:58:39.749Z,4.50
2022-09-27T14:02:25.259Z,0.60
2022-09-27T14:06:08.743Z,2.20
2022-09-27T14:09:52.103Z,1.50
2022-09-27T14:13:32.806Z,0.90
2022-09-27T14:17:10.530Z,1.10
2022-09-27T14:20:52.412Z,0.90
2022-09-27T14:24:43.894Z,1.20
2022-09-27T14:28:31.361Z,0.40
2022-09-27T14:32:19.188Z,1.50
2022-09-27T14:35:56.265Z,4.00
2022-09-27T14:39:35.937Z,3.10
2022-09-27T14:43:18.949Z,2.20
2022-09-27T14:47:11.272Z,6.60
2022-09-27T14:51:17.393Z,2.30
2022-09-27T14:55:20.466Z,0.90
2022-09-27T14:59:11.167Z,0.60
2022-09-27T15:02:54.004Z,2.60
2022-09-27T15:06:32.239Z,0.90
2022-09-27T15:10:20.102Z,3.30
2022-09-27T15:13:58.386Z,3.60
2022-09-27T15:17:43.724Z,4.20
2022-09-27T15:21:44.785Z,1.50
2022-09-27T15:25:33.149Z,2.20
2022-09-27T15:29:22.349Z,4.30
2022-09-27T15:32:59.584Z,3.50
2022-09-27T15:36:51.630Z,1.30
2022-09-27T15:40:43.575Z,3.00
2022-09-27T15:44:51.288Z,4.00
2022-09-27T15:48:32.484Z,4.20
2022-09-27T15:52:41.274Z,3.60
2022-09-27T15:56:18.574Z,3.70
2022-09-27T15:59:55.890Z,1.90
2022-09-27T16:03:36.168Z,0.70
2022-09-27T16:07:16.699Z,3.00
2022-09-27T16:10:57.333Z,2.10
2022-09-27T16:14:34.984Z,0.50
2022-09-27T16:18:14.153Z,1.70
2022-09-27T16:21:53.021Z,3.30
2022-09-27T16:25:31.464Z,1.80
2022-09-27T16:29:14.599Z,1.20
2022-09-27T16:32:53.060Z,2.10
2022-09-27T16:36:31.332Z,2.80
2022-09-27T16:40:11.075Z,2.90
2022-09-27T16:43:55.050Z,3.20
2022-09-27T16:47:26.521Z,1.70
2022-09-27T16:51:12.952Z,3.00
2022-09-27T16:54:50.032Z,7.20
2022-09-27T16:58:29.782Z,8.30
2022-09-27T17:02:10.631Z,7.20
2022-09-27T17:05:48.143Z,11.30
2022-09-27T17:09:27.069Z,6.90
2022-09-27T17:13:04.913Z,4.70
2022-09-27T17:16:45.277Z,5.70
2022-09-27T17:20:22.374Z,5.90
2022-09-27T17:24:00.243Z,10.80
2022-09-27T17:27:42.651Z,10.60
2022-09-27T17:31:18.265Z,8.00
2022-09-27T17:34:57.943Z,7.70
2022-09-27T17:38:37.010Z,5.90
2022-09-27T17:42:20.410Z,6.50
2022-09-27T17:45:52.307Z,5.80
2022-09-27T17:50:05.722Z,10.10
2022-09-27T17:53:11.734Z,4.50
2022-09-27T17:56:47.444Z,4.80
2022-09-27T18:00:25.904Z,6.00
2022-09-27T18:04:10.465Z,5.50
2022-09-27T18:07:42.536Z,5.70
2022-09-27T18:11:27.299Z,5.50
2022-09-27T18:15:05.183Z,5.30
2022-09-27T18:18:46.198Z,6.30
2022-09-27T18:22:26.234Z,4.90
2022-09-27T18:26:05.261Z,8.70
2022-09-27T18:29:42.881Z,5.80
2022-09-27T18:33:23.154Z,7.80
2022-09-27T18:37:00.743Z,6.30
2022-09-27T18:40:56.109Z,8.90
2022-09-27T18:44:17.889Z,8.90
2022-09-27T18:48:02.256Z,6.20
2022-09-27T18:51:34.724Z,8.10
2022-09-27T18:55:24.619Z,8.50
2022-09-27T18:58:50.445Z,8.70
2022-09-27T19:02:27.836Z,9.00
2022-09-27T19:06:08.247Z,8.00
2022-09-27T19:09:51.532Z,11.40
2022-09-27T19:13:28.899Z,7.20
2022-09-27T19:17:30.792Z,8.40
2022-09-27T19:20:46.710Z,4.10
2022-09-27T19:24:24.241Z,6.30
2022-09-27T19:28:09.771Z,7.90
2022-09-27T19:31:38.789Z,8.00
2022-09-27T19:35:18.059Z,9.20
2022-09-27T19:38:56.050Z,6.70
2022-09-27T19:42:33.571Z,6.20
2022-09-27T19:46:14.238Z,5.40
2022-09-27T19:49:57.181Z,7.50
2022-09-27T19:53:38.602Z,13.70
2022-09-27T19:57:14.087Z,6.60
2022-09-27T20:01:07.111Z,6.80
2022-09-27T20:04:27.926Z,9.00
2022-09-27T20:08:10.827Z,6.30
2022-09-27T20:11:33.735Z,7.20
2022-09-27T20:15:10.953Z,4.80
2022-09-27T20:18:54.259Z,5.60
2022-09-27T20:22:32.579Z,3.60
2022-09-27T20:26:14.937Z,5.20
2022-09-27T20:30:13.858Z,6.20
2022-09-27T20:33:30.848Z,6.00
2022-09-27T20:37:09.269Z,4.70
2022-09-27T20:40:54.696Z,5.40
2022-09-27T20:44:31.946Z,3.40
2022-09-27T20:48:09.219Z,6.60
2022-09-27T20:51:47.686Z,4.90
2022-09-27T20:55:25.414Z,8.50
2022-09-27T20:59:12.729Z,9.90
2022-09-27T21:02:54.253Z,12.10
2022-09-27T21:06:33.191Z,6.50
2022-09-27T21:10:11.238Z,4.10
2022-09-27T21:13:49.948Z,9.10
2022-09-27T21:17:31.141Z,6.60
2022-09-27T21:21:09.854Z,6.40
2022-09-27T21:24:48.960Z,6.30
2022-09-27T21:28:30.963Z,7.50
2022-09-27T21:32:11.969Z,4.90
2022-09-27T21:35:50.312Z,3.20
2022-09-27T21:39:27.157Z,5.50
2022-09-27T21:43:05.028Z,5.20
2022-09-27T21:46:45.053Z,4.30
2022-09-27T21:50:22.158Z,7.10
2022-09-27T21:54:01.712Z,7.70
2022-09-27T21:57:40.067Z,4.10
2022-09-27T22:01:26.329Z,4.70
2022-09-27T22:05:07.251Z,2.40
2022-09-27T22:08:50.916Z,3.20
2022-09-27T22:12:31.214Z,1.20
2022-09-27T22:16:11.959Z,2.80
2022-09-27T22:19:50.831Z,1.90
2022-09-27T22:23:28.291Z,3.00
2022-09-27T22:27:05.441Z,2.60
2022-09-27T22:30:42.625Z,3.70
2022-09-27T22:34:21.906Z,2.80
2022-09-27T22:37:59.408Z,3.50
2022-09-27T22:41:36.611Z,2.20
2022-09-27T22:45:14.064Z,3.40
2022-09-27T22:48:52.757Z,2.60
2022-09-27T22:52:31.944Z,1.80
2022-09-27T22:56:13.875Z,2.30
2022-09-27T22:59:51.592Z,3.00
2022-09-27T23:03:28.727Z,2.80
2022-09-27T23:07:07.411Z,3.20
2022-09-27T23:10:45.370Z,2.20
2022-09-27T23:14:22.695Z,1.50
2022-09-27T23:18:01.451Z,3.30
2022-09-27T23:21:38.759Z,2.60
2022-09-27T23:25:16.812Z,3.60
2022-09-27T23:29:02.395Z,4.00
2022-09-27T23:32:42.128Z,4.60
2022-09-27T23:36:24.372Z,2.00
2022-09-27T23:40:02.546Z,2.10
2022-09-27T23:43:40.058Z,3.50
2022-09-27T23:47:17.371Z,3.20
2022-09-27T23:50:56.452Z,1.30
2022-09-27T23:54:34.408Z,3.50
2022-09-27T23:58:11.290Z,3.20
